Brownsville, Texas
Current Conditions -  °F | °C
As of 10:53 AM on Sunday 23 Nov 2014 (Local Time) from KBRO Reporting Station
Clear Clear  
Wind Chill: 75°   Ceiling: Unl
Heat Index: 75°   Visibility: 10mi
Dew Point: 69°   Wind: 8mph
Humidity: 82%   Direction: 220°SW
Pressure: 29.79"   Gusts: NA
Location:  25.9°N, 97.49°W
Report Text: KBRO 231653Z 22007KT 10SM CLR 24/21 A2979 RMK AO2 SLP086 T02390206
Loading
Personal Weather Stations






























Interactive Weather Map New forecast layout! Learn more

10-Day Weather Forecast

Advertisements
Track Severe Weather on mobile